Time;durP1;ratioP1;P1;durP2;ratioP2;P2;SDS_P1;SDS_P2;PMS_P1;PMS_P2;Temp;Humidity;BMP_temperature;BMP_pressure;BME280_temperature;BME280_humidity;BME280_pressure;Samples;Min_cycle;Max_cycle;Signal;HPM_P1;HPM_P2
2022/09/08 00:00:41;;;;;;;0.20;0.20;;;;;;;22.37;59.04;100926.47;5090923;28;20032;-77
2022/09/08 00:03:11;;;;;;;0.10;0.10;;;;;;;22.38;58.85;100922.81;5088105;28;20032;-80
2022/09/08 00:05:48;;;;;;;0.10;0.10;;;;;;;22.42;59.19;100928.88;5082293;28;20130;-79
2022/09/08 00:08:15;;;;;;;0.10;0.10;;;;;;;22.35;59.32;100927.50;5087932;28;20034;-79
2022/09/08 00:10:41;;;;;;;3.15;0.52;;;;;;;22.38;59.09;100922.81;5091442;28;20028;-76
2022/09/08 00:13:09;;;;;;;0.10;0.10;;;;;;;22.39;59.06;100920.97;5092235;28;20038;-79
2022/09/08 00:15:38;;;;;;;0.73;0.17;;;;;;;22.41;59.50;100929.81;5093549;28;20099;-78
2022/09/08 00:18:06;;;;;;;0.00;0.00;;;;;;;22.39;59.22;100923.66;5092741;28;20036;-79
2022/09/08 00:20:33;;;;;;;0.08;0.08;;;;;;;22.38;59.09;100917.41;5089969;28;20028;-79
2022/09/08 00:22:59;;;;;;;0.03;0.03;;;;;;;22.35;59.20;100912.16;5091535;28;20051;-80
2022/09/08 00:25:26;;;;;;;0.08;0.08;;;;;;;22.36;59.13;100913.91;5092194;28;20107;-79
2022/09/08 00:27:52;;;;;;;0.05;0.05;;;;;;;22.35;59.33;100917.56;5095408;28;20020;-79
2022/09/08 00:30:19;;;;;;;0.00;0.00;;;;;;;22.34;59.64;100907.72;5094237;28;20028;-79
2022/09/08 00:32:46;;;;;;;0.30;0.30;;;;;;;22.33;59.72;100910.53;5089377;28;20039;-80
2022/09/08 00:35:14;;;;;;;0.10;0.10;;;;;;;22.31;59.61;100907.97;5093596;28;20038;-80
2022/09/08 00:37:41;;;;;;;0.10;0.10;;;;;;;22.28;59.88;100906.34;5089662;28;20130;-80
2022/09/08 00:40:09;;;;;;;0.10;0.10;;;;;;;22.29;59.68;100907.19;5088276;28;20034;-80
2022/09/08 00:42:35;;;;;;;0.00;0.00;;;;;;;22.29;59.60;100905.38;5091662;28;20031;-80
2022/09/08 00:45:02;;;;;;;0.00;0.00;;;;;;;22.33;59.85;100902.44;5088072;28;20032;-79
2022/09/08 00:47:33;;;;;;;0.10;0.10;;;;;;;22.36;59.62;100902.25;5086993;28;20063;-80
2022/09/08 00:50:07;;;;;;;0.10;0.10;;;;;;;22.38;59.44;100893.09;5085656;28;20024;-80
2022/09/08 00:52:41;;;;;;;0.10;0.10;;;;;;;22.38;59.61;100886.81;5087655;28;20495;-79
2022/09/08 00:55:08;;;;;;;0.20;0.20;;;;;;;22.33;59.59;100880.84;5085649;28;20024;-80
2022/09/08 00:57:35;;;;;;;0.10;0.10;;;;;;;22.38;59.94;100884.13;5087631;28;20119;-79
2022/09/08 01:00:03;;;;;;;0.10;0.10;;;;;;;22.38;59.62;100881.44;5090133;28;20137;-79
2022/09/08 01:02:30;;;;;;;0.10;0.10;;;;;;;22.38;60.01;100878.72;5085619;28;20029;-80
2022/09/08 01:05:04;;;;;;;0.10;0.10;;;;;;;22.35;60.50;100878.94;5086502;28;20051;-80
2022/09/08 01:13:35;;;;;;;0.10;0.10;;;;;;;22.22;60.27;100868.09;5095927;28;20473;-77
2022/09/08 01:16:03;;;;;;;0.10;0.10;;;;;;;22.25;60.46;100868.75;5088914;28;20031;-77
2022/09/08 01:18:29;;;;;;;0.10;0.10;;;;;;;22.25;60.21;100878.69;5095982;28;20047;-77
2022/09/08 01:24:03;;;;;;;0.25;0.25;;;;;;;22.25;60.72;100873.28;5106529;27;20394;-76
2022/09/08 01:29:08;;;;;;;0.55;0.55;;;;;;;22.16;60.72;100869.41;5066230;28;20418;-77
2022/09/08 01:31:39;;;;;;;0.10;0.10;;;;;;;22.19;60.35;100866.47;5051053;28;20490;-76
2022/09/08 01:34:06;;;;;;;0.10;0.10;;;;;;;22.18;60.48;100870.16;5053623;28;20143;-77
2022/09/08 01:36:32;;;;;;;0.25;0.25;;;;;;;22.18;60.36;100872.88;5049211;28;20107;-76
2022/09/08 01:38:58;;;;;;;0.10;0.10;;;;;;;22.18;60.34;100870.16;5046570;28;20588;-77
2022/09/08 01:41:24;;;;;;;0.17;0.17;;;;;;;22.16;60.43;100864.00;5046703;28;20425;-76
2022/09/08 01:43:51;;;;;;;0.10;0.10;;;;;;;22.16;60.08;100874.78;5046777;28;20029;-76
2022/09/08 01:46:17;;;;;;;0.10;0.10;;;;;;;22.16;60.02;100882.88;5055749;28;20060;-77
2022/09/08 01:48:43;;;;;;;0.30;0.30;;;;;;;22.14;60.10;100874.91;5052924;28;20502;-77
2022/09/08 01:51:09;;;;;;;0.10;0.10;;;;;;;22.15;60.03;100878.47;5049296;28;20419;-77
2022/09/08 01:53:36;;;;;;;1.08;0.77;;;;;;;22.13;60.22;100880.38;5050903;28;20036;-77
2022/09/08 01:56:04;;;;;;;0.10;0.10;;;;;;;22.15;60.47;100886.56;5050291;28;20120;-77
2022/09/08 01:58:31;;;;;;;0.10;0.10;;;;;;;22.10;60.22;100880.59;5054794;28;20035;-77
2022/09/08 02:00:57;;;;;;;0.30;0.30;;;;;;;22.06;60.16;100888.03;5053892;28;20072;-75
2022/09/08 02:03:24;;;;;;;0.10;0.10;;;;;;;22.06;60.09;100893.44;5061150;28;20045;-80
2022/09/08 02:05:50;;;;;;;0.10;0.10;;;;;;;22.05;60.51;100874.66;5060257;28;20036;-80
2022/09/08 02:08:16;;;;;;;0.00;0.00;;;;;;;22.04;60.04;100875.63;5056344;28;20063;-79
2022/09/08 02:10:53;;;;;;;0.00;0.00;;;;;;;22.05;60.37;100872.81;5056060;28;20029;-79
2022/09/08 02:13:19;;;;;;;0.10;0.10;;;;;;;21.97;60.51;100862.56;5057877;28;20111;-79
2022/09/08 02:15:45;;;;;;;0.10;0.10;;;;;;;21.95;60.33;100864.47;5056090;28;20059;-79
2022/09/08 02:18:12;;;;;;;0.10;0.10;;;;;;;21.95;60.31;100861.78;5060569;28;20060;-79
2022/09/08 02:20:38;;;;;;;0.10;0.10;;;;;;;21.92;60.32;100859.31;5063063;28;20449;-80
2022/09/08 02:23:04;;;;;;;0.10;0.10;;;;;;;21.94;60.21;100848.41;5054646;28;20064;-78
2022/09/08 02:25:30;;;;;;;0.20;0.20;;;;;;;21.96;60.30;100846.47;5055450;28;20033;-80
2022/09/08 02:27:56;;;;;;;0.10;0.10;;;;;;;21.99;59.97;100854.34;5053618;28;20550;-78
2022/09/08 02:30:23;;;;;;;0.10;0.10;;;;;;;22.00;60.12;100836.34;5057912;28;20036;-79
2022/09/08 02:32:49;;;;;;;0.10;0.10;;;;;;;22.00;60.08;100836.34;5056327;28;20490;-80
2022/09/08 02:35:16;;;;;;;0.10;0.10;;;;;;;22.01;60.04;100843.44;5052752;28;20109;-79
2022/09/08 02:37:42;;;;;;;0.10;0.10;;;;;;;22.03;60.45;100841.53;5051767;28;20028;-79
2022/09/08 02:40:09;;;;;;;0.10;0.10;;;;;;;22.04;60.48;100848.66;5047181;28;20041;-79
2022/09/08 02:42:35;;;;;;;0.10;0.10;;;;;;;21.98;61.16;100844.53;5043360;28;20025;-79
2022/09/08 02:45:02;;;;;;;0.10;0.10;;;;;;;21.93;60.70;100842.16;5040669;28;20040;-79
2022/09/08 02:47:31;;;;;;;0.10;0.10;;;;;;;21.88;60.77;100840.72;5043207;28;20479;-78
2022/09/08 02:49:57;;;;;;;0.10;0.10;;;;;;;21.83;61.31;100837.50;5047050;28;20038;-79
2022/09/08 02:52:23;;;;;;;0.10;0.10;;;;;;;21.77;60.88;100836.06;5038596;28;20021;-79
2022/09/08 02:54:50;;;;;;;0.10;0.10;;;;;;;21.73;61.09;100837.25;5041637;28;20511;-79
2022/09/08 02:57:20;;;;;;;0.47;0.38;;;;;;;21.74;61.44;100841.66;5041147;28;20034;-79
2022/09/08 02:59:46;;;;;;;0.10;0.10;;;;;;;21.72;61.79;100833.69;5046102;28;20048;-79
2022/09/08 03:02:12;;;;;;;0.10;0.10;;;;;;;21.64;61.68;100831.47;5039533;28;20101;-79
2022/09/08 03:04:38;;;;;;;0.10;0.10;;;;;;;21.60;61.99;100829.13;5041917;28;20043;-79
2022/09/08 03:07:04;;;;;;;0.10;0.10;;;;;;;21.59;61.99;100822.84;5041579;28;20633;-78
2022/09/08 03:09:30;;;;;;;0.03;0.03;;;;;;;21.54;61.86;100821.41;5043169;28;20037;-79
2022/09/08 03:11:56;;;;;;;0.25;0.25;;;;;;;21.51;61.83;100819.78;5040053;28;20064;-78
2022/09/08 03:14:23;;;;;;;0.08;0.08;;;;;;;21.49;61.66;100819.00;5057654;28;20486;-79
2022/09/08 03:16:49;;;;;;;0.38;0.38;;;;;;;21.47;61.83;100823.63;5036657;28;20029;-79
2022/09/08 03:19:15;;;;;;;0.10;0.10;;;;;;;21.46;61.65;100822.78;5045232;28;20057;-80
2022/09/08 03:21:41;;;;;;;0.10;0.10;;;;;;;21.46;61.64;100824.63;5038182;28;20056;-79
2022/09/08 03:24:07;;;;;;;0.15;0.15;;;;;;;21.44;62.27;100823.84;5039738;28;20080;-80
2022/09/08 03:26:33;;;;;;;0.10;0.10;;;;;;;21.44;61.74;100830.09;5040658;28;20485;-79
2022/09/08 03:29:03;;;;;;;0.00;0.00;;;;;;;21.45;61.47;100822.88;5045113;28;20398;-79
2022/09/08 03:31:29;;;;;;;0.10;0.10;;;;;;;21.41;61.36;100818.63;5042332;28;20037;-80
2022/09/08 03:33:55;;;;;;;0.10;0.10;;;;;;;21.40;61.63;100817.78;5046588;28;20036;-80
2022/09/08 03:36:22;;;;;;;0.10;0.10;;;;;;;21.38;61.90;100821.56;5035230;28;20115;-78
2022/09/08 03:38:49;;;;;;;0.10;0.10;;;;;;;21.37;61.40;100818.00;5032471;28;20403;-79
2022/09/08 03:41:15;;;;;;;0.10;0.10;;;;;;;21.32;61.81;100834.47;5047029;28;20032;-79
2022/09/08 03:43:43;;;;;;;0.20;0.20;;;;;;;21.33;61.62;100840.72;5045728;28;20037;-79
2022/09/08 03:46:10;;;;;;;0.10;0.10;;;;;;;21.26;62.38;100842.06;5040395;28;20710;-79
2022/09/08 03:48:36;;;;;;;0.10;0.10;;;;;;;21.21;62.99;100845.09;5046775;28;20098;-79
2022/09/08 03:51:13;;;;;;;0.10;0.10;;;;;;;21.23;62.65;100848.53;5033904;28;20041;-79
2022/09/08 03:53:39;;;;;;;0.10;0.10;;;;;;;21.15;63.42;100842.78;5036228;28;20029;-79
2022/09/08 03:56:08;;;;;;;0.10;0.10;;;;;;;21.14;63.12;100849.13;5038335;28;20038;-78
2022/09/08 03:58:35;;;;;;;0.17;0.17;;;;;;;21.10;63.69;100859.25;5041685;28;20025;-79
2022/09/08 04:01:03;;;;;;;0.10;0.10;;;;;;;21.10;63.25;100853.00;5041696;28;20668;-79
2022/09/08 04:03:29;;;;;;;0.10;0.10;;;;;;;21.08;63.25;100849.53;5036240;28;20043;-80
2022/09/08 04:05:57;;;;;;;0.10;0.10;;;;;;;21.07;63.43;100845.09;5038198;28;20113;-79
2022/09/08 04:08:23;;;;;;;0.00;0.00;;;;;;;21.07;63.28;100842.41;5043297;28;20025;-80
2022/09/08 04:10:49;;;;;;;0.10;0.10;;;;;;;21.06;63.22;100840.66;5045614;28;20075;-79
2022/09/08 04:13:16;;;;;;;0.10;0.10;;;;;;;21.06;63.61;100840.66;5035601;28;20084;-79
2022/09/08 04:15:42;;;;;;;0.10;0.10;;;;;;;21.01;63.98;100839.16;5041086;28;20029;-79
2022/09/08 04:18:08;;;;;;;0.10;0.10;;;;;;;20.95;63.72;100834.16;5038217;28;20037;-79
2022/09/08 04:20:35;;;;;;;0.10;0.10;;;;;;;20.90;64.27;100819.25;5042407;28;20435;-78
2022/09/08 04:23:01;;;;;;;0.13;0.13;;;;;;;20.86;64.40;100813.22;5042838;28;20062;-78
2022/09/08 04:25:27;;;;;;;0.10;0.10;;;;;;;20.80;64.48;100808.22;5038564;28;20037;-79
2022/09/08 04:27:53;;;;;;;0.10;0.10;;;;;;;20.78;64.04;100802.91;5037534;28;20021;-78
2022/09/08 04:30:20;;;;;;;0.50;0.50;;;;;;;20.79;64.12;100806.47;5038789;28;20273;-79
2022/09/08 04:32:47;;;;;;;0.25;0.25;;;;;;;20.77;64.67;100817.34;5036572;28;20021;-78
2022/09/08 04:35:13;;;;;;;0.10;0.10;;;;;;;20.75;65.25;100819.28;5038763;28;20032;-78
2022/09/08 04:37:39;;;;;;;0.10;0.10;;;;;;;20.70;65.87;100832.13;5040225;28;20095;-79
2022/09/08 04:40:07;;;;;;;0.10;0.10;;;;;;;20.65;65.51;100835.09;5038878;28;20081;-78
2022/09/08 04:42:33;;;;;;;0.10;0.10;;;;;;;20.60;65.25;100834.53;5047038;28;20036;-77
2022/09/08 04:45:00;;;;;;;0.10;0.10;;;;;;;20.58;65.76;100836.44;5046785;28;20033;-78
2022/09/08 04:47:26;;;;;;;0.13;0.13;;;;;;;20.56;66.06;100835.69;5033988;28;20026;-78
2022/09/08 06:07:40;;;;;;;0.10;0.10;;;;;;;20.35;66.71;100822.59;4974764;28;20065;-76
2022/09/08 06:10:07;;;;;;;0.10;0.10;;;;;;;20.21;67.35;100822.56;4978104;28;20046;-77
2022/09/08 06:12:34;;;;;;;0.40;0.40;;;;;;;20.18;67.06;100822.75;4981904;28;20037;-75
2022/09/08 06:15:00;;;;;;;0.10;0.10;;;;;;;20.11;67.22;100832.16;4984510;28;20084;-77
2022/09/08 06:17:26;;;;;;;0.10;0.10;;;;;;;20.12;67.20;100828.50;4984966;28;20392;-77
2022/09/08 06:19:52;;;;;;;0.70;0.38;;;;;;;20.12;67.14;100823.13;4992652;28;20133;-76
2022/09/08 06:22:18;;;;;;;0.40;0.40;;;;;;;20.11;67.02;100826.78;4994614;28;20080;-77
2022/09/08 06:24:44;;;;;;;0.55;0.55;;;;;;;20.15;66.98;100823.81;4993976;28;20030;-77
2022/09/08 06:32:50;;;;;;;0.10;0.10;;;;;;;20.23;67.39;100828.72;5088896;27;20429;-75
2022/09/08 06:35:23;;;;;;;0.10;0.10;;;;;;;20.20;67.89;100827.09;5073761;28;20109;-75
2022/09/08 06:37:56;;;;;;;0.20;0.20;;;;;;;20.22;67.47;100824.28;5080455;28;20016;-75
2022/09/08 06:40:49;;;;;;;0.20;0.20;;;;;;;20.27;67.12;100827.56;5067820;28;20063;-75
2022/09/08 06:43:42;;;;;;;0.00;0.00;;;;;;;20.29;67.15;100831.03;5053375;28;20379;-75
2022/09/08 06:46:28;;;;;;;0.13;0.13;;;;;;;20.33;66.90;100831.72;5067581;28;20055;-75
2022/09/08 06:48:54;;;;;;;0.10;0.10;;;;;;;20.28;67.25;100837.38;5074534;28;20456;-75
2022/09/08 07:00:02;;;;;;;0.10;0.10;;;;;;;20.41;67.53;100834.81;5067494;28;20386;-75
2022/09/08 07:02:56;;;;;;;0.10;0.10;;;;;;;20.42;67.78;100835.66;5065595;28;20111;-75
2022/09/08 07:08:38;;;;;;;0.10;0.10;;;;;;;20.53;67.49;100838.56;5087774;27;20121;-75
2022/09/08 07:11:32;;;;;;;0.10;0.10;;;;;;;20.57;67.71;100826.63;5074257;28;20043;-75
2022/09/08 07:16:46;;;;;;;0.10;0.10;;;;;;;20.68;67.79;100832.19;5064483;28;20410;-75
2022/09/08 07:19:40;;;;;;;0.20;0.20;;;;;;;20.71;68.02;100828.50;5067506;28;20079;-75
2022/09/08 07:22:31;;;;;;;0.17;0.17;;;;;;;20.79;67.43;100822.63;5067721;28;20028;-75
2022/09/08 07:25:20;;;;;;;0.10;0.10;;;;;;;20.83;67.42;100821.47;5034367;28;20028;-75
2022/09/08 07:27:52;;;;;;;0.10;0.10;;;;;;;20.76;67.61;100817.44;5046441;28;20060;-75
2022/09/08 07:30:19;;;;;;;0.10;0.10;;;;;;;20.77;67.68;100819.16;5047252;28;20025;-75
2022/09/08 07:32:51;;;;;;;0.20;0.20;;;;;;;20.77;67.64;100827.25;5046213;28;20490;-75
2022/09/08 07:35:57;;;;;;;0.10;0.10;;;;;;;20.90;67.38;100825.50;5047612;28;20029;-75
2022/09/08 07:39:02;;;;;;;0.10;0.10;;;;;;;20.95;67.17;100823.38;5047371;28;20048;-75
2022/09/08 07:41:37;;;;;;;0.10;0.10;;;;;;;20.94;67.35;100829.72;5033445;28;20033;-74
2022/09/08 07:44:13;;;;;;;1.75;1.60;;;;;;;20.92;67.33;100823.59;5047630;28;20029;-75
2022/09/08 07:55:26;;;;;;;0.85;0.85;;;;;;;21.18;66.40;100826.41;5088454;28;20386;-75
2022/09/08 08:09:22;;;;;;;0.10;0.10;;;;;;;21.09;63.68;100840.50;5086487;27;20187;-75
2022/09/08 08:11:53;;;;;;;;;;;;;;;21.15;63.18;100845.47;5069383;28;20079;-77
2022/09/08 08:17:50;;;;;;;0.20;0.20;;;;;;;21.20;63.00;100851.44;5063047;28;20411;-77
2022/09/08 08:28:46;;;;;;;0.40;0.40;;;;;;;21.14;62.65;100854.53;5049544;28;20384;-74
2022/09/08 08:34:05;;;;;;;0.30;0.30;;;;;;;21.25;62.87;100861.94;5107441;27;1184438;-75
2022/09/08 08:36:36;;;;;;;0.70;0.70;;;;;;;21.34;62.55;100862.16;5117722;28;20031;-75
2022/09/08 08:39:17;;;;;;;1.67;1.57;;;;;;;21.36;61.78;100859.41;5129418;27;20031;-78
2022/09/08 08:44:53;;;;;;;0.65;0.65;;;;;;;21.85;61.12;100849.91;5058703;28;20390;-75
2022/09/08 08:50:44;;;;;;;0.10;0.10;;;;;;;22.05;59.63;100862.03;5110407;27;20403;-76
2022/09/08 08:53:49;;;;;;;0.63;0.63;;;;;;;22.22;59.59;100852.78;5077376;28;20060;-74
2022/09/08 08:56:44;;;;;;;0.40;0.40;;;;;;;22.19;59.72;100862.91;5081721;28;20628;-77
2022/09/08 09:02:39;;;;;;;0.50;0.50;;;;;;;22.19;59.56;100865.63;5057149;28;20417;-77
2022/09/08 09:13:51;;;;;;;0.38;0.38;;;;;;;22.00;59.91;100852.53;5053278;27;1215668;-77
2022/09/08 09:19:24;;;;;;;0.13;0.13;;;;;;;21.98;58.77;100852.63;5086257;27;1230580;-77
2022/09/08 09:22:21;;;;;;;0.20;0.20;;;;;;;22.04;57.18;100851.34;5104526;28;20039;-77
2022/09/08 09:25:17;;;;;;;4.55;0.90;;;;;;;22.14;58.14;100850.63;5100469;28;20093;-76
2022/09/08 09:27:54;;;;;;;0.80;0.80;;;;;;;22.17;58.07;100857.63;5078696;28;20037;-77
2022/09/08 09:30:24;;;;;;;0.10;0.10;;;;;;;22.20;57.91;100849.31;5085453;28;20036;-77
2022/09/08 09:36:00;;;;;;;0.15;0.15;;;;;;;22.52;57.73;100848.94;5126791;27;20750;-77
2022/09/08 09:39:01;;;;;;;0.10;0.10;;;;;;;22.55;56.72;100850.56;5106127;28;20094;-77
2022/09/08 09:44:41;;;;;;;0.55;0.55;;;;;;;22.73;56.97;100848.38;5102362;27;20391;-77
2022/09/08 09:47:27;;;;;;;2.03;0.65;;;;;;;22.75;55.45;100851.84;5059677;28;20252;-76
2022/09/08 09:58:25;;;;;;;0.20;0.20;;;;;;;22.99;53.56;100861.88;5069250;27;20391;-77
2022/09/08 10:01:16;;;;;;;0.10;0.10;;;;;;;23.03;54.02;100849.84;5055961;28;20119;-76
2022/09/08 10:04:22;;;;;;;0.52;0.52;;;;;;;22.86;53.54;100846.53;5061204;28;20055;-77
2022/09/08 10:32:03;;;;;;;0.10;0.10;;;;;;;23.43;51.62;100863.19;5035560;27;20452;-80
2022/09/08 10:34:54;;;;;;;0.10;0.10;;;;;;;23.56;51.67;100857.72;5023417;28;20117;-79
2022/09/08 10:37:55;;;;;;;0.77;0.65;;;;;;;23.72;51.81;100860.16;5020325;28;20498;-79
2022/09/08 10:40:51;;;;;;;0.10;0.10;;;;;;;23.75;50.04;100862.59;5033653;27;20051;-79
2022/09/08 10:55:12;;;;;;;0.15;0.15;;;;;;;23.45;50.67;100855.81;5070117;28;20386;-77
2022/09/08 10:58:12;;;;;;;2.08;0.35;;;;;;;23.54;50.92;100851.56;5052559;28;20068;-77
2022/09/08 11:01:09;;;;;;;0.10;0.10;;;;;;;23.62;49.78;100856.41;5045781;28;20352;-77
2022/09/08 11:04:09;;;;;;;0.10;0.10;;;;;;;23.85;48.79;100844.72;5048827;28;20040;-77
2022/09/08 11:12:44;;;;;;;0.10;0.10;;;;;;;24.61;48.24;100840.72;5070310;28;20379;-76
2022/09/08 11:17:51;;;;;;;0.63;0.50;;;;;;;24.60;47.91;100830.88;5069285;28;20895;-77
2022/09/08 11:20:34;;;;;;;2.45;0.85;;;;;;;24.77;47.85;100838.53;5068161;28;20112;-76
2022/09/08 11:25:54;;;;;;;0.10;0.10;;;;;;;24.84;47.52;100844.34;5103338;27;20359;-77
2022/09/08 11:28:39;;;;;;;0.10;0.10;;;;;;;24.90;46.13;100842.97;5095628;28;20400;-77
2022/09/08 11:34:16;;;;;;;0.10;0.10;;;;;;;25.11;45.21;100838.53;5078011;27;20422;-80
2022/09/08 11:48:37;;;;;;;0.20;0.20;;;;;;;25.41;44.11;100823.47;5109456;27;20151;-77
2022/09/08 11:54:12;;;;;;;0.17;0.17;;;;;;;25.55;43.87;100824.16;5071434;28;20393;-77
2022/09/08 11:59:59;;;;;;;0.10;0.10;;;;;;;25.72;41.56;100815.47;5124081;27;20389;-77
2022/09/08 12:03:05;;;;;;;0.20;0.20;;;;;;;25.77;41.72;100818.63;5077710;28;20032;-77
2022/09/08 12:14:27;;;;;;;0.03;0.03;;;;;;;25.67;40.51;100802.28;5067580;28;20427;-77
2022/09/08 12:19:56;;;;;;;0.05;0.05;;;;;;;25.62;39.31;100792.78;5117288;27;20139;-77
2022/09/08 12:22:40;;;;;;;0.08;0.08;;;;;;;25.58;40.03;100802.19;5110594;28;20566;-76
2022/09/08 12:28:22;;;;;;;0.20;0.20;;;;;;;25.84;40.92;100792.69;5173615;27;20395;-77
2022/09/08 12:34:09;;;;;;;0.10;0.10;;;;;;;25.91;39.70;100789.47;5116220;27;20990;-77
2022/09/08 12:36:44;;;;;;;0.10;0.10;;;;;;;26.06;40.27;100798.16;5104501;28;20032;-77
2022/09/08 12:39:50;;;;;;;0.20;0.20;;;;;;;26.11;39.74;100785.91;5120067;28;20016;-77
2022/09/08 12:45:44;;;;;;;0.10;0.10;;;;;;;26.22;39.03;100778.66;5099112;27;20396;-77
2022/09/08 12:48:50;;;;;;;0.10;0.10;;;;;;;26.50;40.03;100789.84;5051064;28;20040;-77
2022/09/08 12:54:33;;;;;;;0.10;0.10;;;;;;;26.55;39.69;100782.97;5094841;27;20385;-77
2022/09/08 12:57:30;;;;;;;0.10;0.10;;;;;;;26.53;39.83;100786.81;5092637;28;20042;-77
2022/09/08 13:03:19;;;;;;;0.20;0.20;;;;;;;26.73;39.38;100783.19;5090347;27;20447;-77
2022/09/08 13:06:25;;;;;;;0.10;0.10;;;;;;;26.83;38.77;100777.84;5057233;28;20048;-77
2022/09/08 13:11:50;;;;;;;0.13;0.13;;;;;;;27.04;39.18;100768.72;5120533;27;20471;-77
2022/09/08 13:14:42;;;;;;;0.08;0.08;;;;;;;27.08;38.52;100765.56;5089470;28;20028;-77
2022/09/08 13:17:24;;;;;;;0.28;0.28;;;;;;;27.17;38.84;100768.47;5083457;28;20031;-77
2022/09/08 13:20:16;;;;;;;0.15;0.15;;;;;;;27.11;38.67;100759.84;5084660;28;20024;-77
2022/09/08 13:23:12;;;;;;;1.10;1.05;;;;;;;27.07;38.97;100771.16;5091431;28;20115;-78
2022/09/08 13:28:56;;;;;;;0.00;0.00;;;;;;;27.18;38.70;100776.47;5070590;28;20410;-78
2022/09/08 13:31:50;;;;;;;0.10;0.10;;;;;;;27.40;37.85;100774.50;5071568;28;20028;-80
2022/09/08 13:37:19;;;;;;;1.80;1.65;;;;;;;27.70;38.47;100762.63;5117069;27;20406;-77
2022/09/08 13:40:11;;;;;;;0.30;0.30;;;;;;;27.81;38.59;100771.66;5105758;28;20035;-78
2022/09/08 13:43:17;;;;;;;0.10;0.10;;;;;;;27.86;36.80;100775.63;5103788;28;20036;-78
2022/09/08 13:49:04;;;;;;;4.28;1.48;;;;;;;27.37;36.30;100774.78;5098563;27;20792;-78
2022/09/08 13:51:43;;;;;;;0.10;0.10;;;;;;;27.33;37.62;100774.19;5071947;28;20032;-80
2022/09/08 14:00:14;;;;;;;0.10;0.10;;;;;;;27.60;35.89;100775.38;5127601;27;1255191;-78
2022/09/08 14:05:41;;;;;;;0.35;0.35;;;;;;;27.82;37.23;100771.50;5049479;27;20340;-78
2022/09/08 14:11:13;;;;;;;0.45;0.45;;;;;;;27.72;36.89;100774.22;5135615;27;20484;-80
2022/09/08 14:13:42;;;;;;;0.30;0.30;;;;;;;27.59;36.46;100773.66;5138566;27;20039;-80
2022/09/08 14:19:35;;;;;;;1.35;1.17;;;;;;;27.16;37.66;100772.19;5127981;27;20393;-78
2022/09/08 14:22:16;;;;;;;0.00;0.00;;;;;;;26.94;37.79;100782.28;5074923;28;20033;-80
2022/09/08 14:25:03;;;;;;;0.65;0.65;;;;;;;26.79;38.46;100766.38;5059471;28;20033;-80
2022/09/08 14:30:21;;;;;;;0.43;0.43;;;;;;;26.92;39.44;100765.25;5061867;28;20433;-80
2022/09/08 14:33:09;;;;;;;0.10;0.10;;;;;;;27.07;38.00;100763.84;5051178;28;20041;-80
2022/09/08 14:35:48;;;;;;;0.10;0.10;;;;;;;27.40;36.95;100759.06;5044390;28;20500;-80
2022/09/08 14:47:44;;;;;;;0.10;0.10;;;;;;;27.44;37.41;100755.06;5052583;28;20482;-80
2022/09/08 14:55:52;;;;;;;0.00;0.00;;;;;;;27.22;37.14;100758.03;5109760;27;1176101;-81
2022/09/08 14:58:32;;;;;;;0.45;0.45;;;;;;;26.98;38.05;100759.28;5116608;28;20062;-81
2022/09/08 15:01:14;;;;;;;0.00;0.00;;;;;;;26.91;39.06;100750.78;5101148;28;20043;-81
2022/09/08 15:03:48;;;;;;;0.10;0.10;;;;;;;26.83;38.92;100760.66;5103906;28;20027;-83
2022/09/08 15:06:35;;;;;;;0.20;0.20;;;;;;;26.85;40.82;100764.09;5096909;28;20024;-83
2022/09/08 15:09:29;;;;;;;0.10;0.10;;;;;;;26.54;40.21;100764.09;5096048;28;20032;-82
2022/09/08 15:11:56;;;;;;;0.00;0.00;;;;;;;26.28;40.54;100767.25;5098804;28;20035;-85
2022/09/08 15:17:24;;;;;;;0.20;0.20;;;;;;;26.22;40.95;100775.94;5065327;28;20425;-77
2022/09/08 15:20:00;;;;;;;0.10;0.10;;;;;;;26.03;42.01;100769.38;5062359;28;20040;-76
2022/09/08 15:22:53;;;;;;;0.10;0.10;;;;;;;25.86;42.63;100772.69;5066151;28;20026;-76
2022/09/08 15:28:08;;;;;;;1.65;0.68;;;;;;;25.80;43.39;100779.53;5101936;27;20409;-78
2022/09/08 15:30:34;;;;;;;0.10;0.10;;;;;;;25.73;43.19;100771.03;5097931;28;20055;-79
2022/09/08 15:33:17;;;;;;;0.38;0.38;;;;;;;25.73;42.98;100773.75;5094736;28;20048;-79
2022/09/08 15:39:07;;;;;;;0.00;0.00;;;;;;;25.68;44.18;100768.72;5123998;27;20408;-77
2022/09/08 15:41:41;;;;;;;0.03;0.03;;;;;;;25.49;42.30;100766.69;5109020;28;20032;-77
2022/09/08 15:44:47;;;;;;;0.10;0.10;;;;;;;25.38;41.50;100774.03;5104485;28;20024;-78
2022/09/08 15:47:19;;;;;;;0.22;0.22;;;;;;;25.46;41.75;100771.50;5097071;28;20043;-75
2022/09/08 15:50:15;;;;;;;0.10;0.10;;;;;;;25.43;41.02;100775.34;5099068;28;20508;-77
2022/09/08 15:58:48;;;;;;;0.10;0.10;;;;;;;25.26;42.08;100781.28;5098087;27;20356;-77
2022/09/08 16:01:16;;;;;;;0.10;0.10;;;;;;;25.30;42.60;100782.78;5089765;28;20123;-77
2022/09/08 16:09:14;;;;;;;0.10;0.10;;;;;;;25.60;42.64;100778.50;5095270;27;1212818;-76
2022/09/08 16:17:15;;;;;;;0.10;0.10;;;;;;;25.23;44.01;100797.84;5059523;27;20424;-75
2022/09/08 16:19:44;;;;;;;0.10;0.10;;;;;;;25.02;44.19;100795.91;5062358;27;20030;-79
2022/09/08 16:27:53;;;;;;;0.00;0.00;;;;;;;24.47;45.17;100791.22;5072120;27;1893360;-75
2022/09/08 16:30:58;;;;;;;0.10;0.10;;;;;;;24.32;45.02;100787.03;5106451;28;20084;-78
2022/09/08 16:33:27;;;;;;;0.10;0.10;;;;;;;24.10;46.00;100775.19;5108533;28;20044;-77
2022/09/08 16:36:11;;;;;;;0.10;0.10;;;;;;;24.02;46.37;100780.34;5089981;28;20020;-78
2022/09/08 16:38:49;;;;;;;0.10;0.10;;;;;;;23.78;46.62;100778.53;5091133;28;20020;-74
2022/09/08 16:41:31;;;;;;;0.10;0.10;;;;;;;23.86;46.40;100775.22;5090495;28;20591;-74
2022/09/08 16:44:11;;;;;;;0.10;0.10;;;;;;;23.73;47.14;100776.16;5087729;28;20097;-75
2022/09/08 16:46:38;;;;;;;0.13;0.13;;;;;;;23.59;47.35;100774.53;5087587;28;20063;-75
2022/09/08 16:49:31;;;;;;;0.10;0.10;;;;;;;23.67;47.90;100776.63;5094677;28;20064;-75
2022/09/08 16:52:28;;;;;;;0.10;0.10;;;;;;;23.54;47.86;100775.84;5090278;28;20043;-75
2022/09/08 16:55:27;;;;;;;0.20;0.20;;;;;;;23.48;47.47;100785.28;5089293;28;20131;-74
2022/09/08 16:58:29;;;;;;;0.10;0.10;;;;;;;23.42;48.27;100783.06;5093482;28;20114;-75
2022/09/08 17:01:26;;;;;;;0.10;0.10;;;;;;;23.27;48.79;100790.47;5094152;28;20027;-75
2022/09/08 17:04:19;;;;;;;0.10;0.10;;;;;;;23.27;49.41;100795.88;5091636;28;20046;-75
2022/09/08 17:07:15;;;;;;;0.10;0.10;;;;;;;23.15;49.96;100786.78;5095902;28;20039;-76
2022/09/08 17:09:51;;;;;;;0.20;0.20;;;;;;;23.11;49.53;100782.59;5093756;28;20063;-75
2022/09/08 17:12:35;;;;;;;0.10;0.10;;;;;;;23.13;51.08;100793.28;5094277;28;20104;-76
2022/09/08 17:20:30;;;;;;;0.10;0.10;;;;;;;23.07;50.02;100786.53;5085973;27;20783;-75
2022/09/08 17:25:50;;;;;;;0.10;0.10;;;;;;;23.04;51.95;100786.72;5044211;27;20410;-74
2022/09/08 17:36:49;;;;;;;0.10;0.10;;;;;;;22.90;53.88;100776.94;5094389;27;20440;-75
2022/09/08 17:39:35;;;;;;;0.10;0.10;;;;;;;22.88;54.88;100785.16;5094381;28;20047;-79
2022/09/08 17:42:23;;;;;;;0.10;0.10;;;;;;;22.90;54.15;100776.94;5096032;28;20121;-77
2022/09/08 17:50:50;;;;;;;0.13;0.13;;;;;;;22.91;55.78;100774.13;4981933;28;20420;-76
2022/09/08 17:53:56;;;;;;;0.10;0.10;;;;;;;22.94;55.02;100773.03;4982320;28;20067;-77
2022/09/08 17:56:48;;;;;;;0.20;0.20;;;;;;;22.85;56.00;100774.56;4985023;28;20046;-77
2022/09/08 17:59:26;;;;;;;;;;;;;;;22.89;54.97;100765.28;4978300;28;20077;-77
2022/09/08 18:02:32;;;;;;;0.10;0.10;;;;;;;22.75;56.47;100763.59;4980936;28;20012;-77
2022/09/08 18:16:16;;;;;;;0.10;0.10;;;;;;;22.42;56.54;100756.09;5107011;27;20408;-78
2022/09/08 18:18:48;;;;;;;0.20;0.20;;;;;;;22.27;57.09;100764.25;5096606;28;20501;-76
2022/09/08 18:24:15;;;;;;;0.10;0.10;;;;;;;22.14;57.63;100768.78;5070064;27;20409;-75
2022/09/08 18:30:04;;;;;;;0.10;0.10;;;;;;;21.96;58.34;100774.50;5127436;27;20385;-78
2022/09/08 18:33:00;;;;;;;0.10;0.10;;;;;;;21.87;58.07;100775.16;5094964;28;20382;-78
2022/09/08 18:36:04;;;;;;;0.10;0.10;;;;;;;21.77;58.48;100779.41;5089565;28;20036;-78